Terminal Aerodrome Forecast
Issued by NWS

Home | Current Version | Previous Version | Text Only | Print | Product List | Glossary On
Versions: 1 2 3 4 5 6 7 8 9 10 11 12 13 14 15 16 17 18 19 20 21 22 23 24 25 26 27 28 29 30 31 32 33
000
FTUS43 KMKX 300539 AAA
TAFENW
TAF AMD
KENW 300539Z 3006/3106 VRB03KT 4SM BR BKN150
     FM300900 00000KT 1SM BR SCT005 BKN150
     FM301300 VRB03KT 4SM BR SCT005 BKN080
     FM301400 25004KT P6SM BKN150
     FM302000 25009KT P6SM VCTS SCT040CB BKN100
     FM310300 26004KT P6SM SCT040 BKN070=

USA.gov is the U.S. government's official web portal to all federal, state and local government web resources and services.